createdAt,value
2022-11-09T00:00:49.962Z,98432.16
2022-11-09T00:03:16.944Z,98430.31
2022-11-09T00:05:43.956Z,98439.47
2022-11-09T00:08:11.768Z,98438.88
2022-11-09T00:10:38.582Z,98438.03
2022-11-09T00:13:05.515Z,98436.91
2022-11-09T00:15:32.064Z,98435.00
2022-11-09T00:18:02.054Z,98431.34
2022-11-09T00:20:28.756Z,98426.34
2022-11-09T00:22:55.384Z,98421.09
2022-11-09T00:25:21.953Z,98427.50
2022-11-09T00:27:48.577Z,98417.38
2022-11-09T00:30:15.479Z,98427.50
2022-11-09T00:32:42.284Z,98412.06
2022-11-09T00:35:09.158Z,98414.03
2022-11-09T00:37:35.876Z,98411.00
2022-11-09T00:40:02.625Z,98393.38
2022-11-09T00:42:29.271Z,98396.03
2022-11-09T00:44:55.863Z,98393.00
2022-11-09T00:47:22.501Z,98383.34
2022-11-09T00:49:49.077Z,98382.75
2022-11-09T00:52:15.788Z,98380.50
2022-11-09T09:40:26.705Z,98473.53
2022-11-09T09:42:55.295Z,98463.13
2022-11-09T09:45:28.107Z,98466.50
2022-11-09T09:48:04.004Z,98467.22
2022-11-09T09:50:51.311Z,98465.63
2022-11-09T09:53:29.346Z,98462.06
2022-11-09T09:56:12.662Z,98466.75
2022-11-09T09:58:46.531Z,98469.78
2022-11-09T10:01:20.206Z,98465.50
2022-11-09T10:03:50.948Z,98479.47
2022-11-09T10:06:42.081Z,98471.84
2022-11-09T10:09:20.919Z,98467.91
2022-11-09T10:12:11.448Z,98463.31
2022-11-09T10:14:48.655Z,98472.19
2022-11-09T10:17:30.668Z,98463.50
2022-11-09T10:20:12.119Z,98470.88
2022-11-09T10:22:45.798Z,98471.72
2022-11-09T10:25:50.371Z,98470.38
2022-11-09T10:28:17.370Z,98465.16
2022-11-09T10:30:44.781Z,98472.34
2022-11-09T10:33:11.341Z,98471.16
2022-11-09T10:35:45.269Z,98469.19
2022-11-09T10:38:37.162Z,98469.19
2022-11-09T10:41:24.299Z,98463.22
2022-11-09T10:43:50.938Z,98465.59
2022-11-09T10:46:17.589Z,98465.09
2022-11-09T10:48:44.333Z,98465.13
2022-11-09T10:51:35.813Z,98456.00
2022-11-09T10:54:15.422Z,98453.88
2022-11-09T10:59:35.283Z,98461.41
2022-11-09T11:02:02.517Z,98459.44
2022-11-09T11:04:29.197Z,98458.59
2022-11-09T11:06:56.179Z,98456.41
2022-11-09T11:09:23.509Z,98451.13
2022-11-09T11:12:13.564Z,98448.13
2022-11-09T11:14:43.915Z,98455.28
2022-11-09T11:17:35.005Z,98452.09
2022-11-09T11:20:32.462Z,98457.25
2022-11-09T11:23:12.832Z,98462.91
2022-11-09T11:26:02.462Z,98462.75
2022-11-09T11:29:00.997Z,98452.44
2022-11-09T11:31:28.546Z,98455.06
2022-11-09T11:33:56.412Z,98451.59
2022-11-09T11:36:50.769Z,98462.28
2022-11-09T11:40:08.875Z,98457.28
2022-11-09T11:42:44.272Z,98464.28
2022-11-09T11:45:39.724Z,98452.47
2022-11-09T11:48:26.692Z,98452.81
2022-11-09T11:50:59.119Z,98453.81
2022-11-09T11:54:03.417Z,98451.47
2022-11-09T11:56:46.682Z,98452.50
2022-11-09T11:59:22.377Z,98447.47
2022-11-09T12:01:57.732Z,98449.78
2022-11-09T12:04:40.576Z,98449.94
2022-11-09T12:07:13.355Z,98443.63
2022-11-09T12:09:45.912Z,98443.94
2022-11-09T12:12:37.303Z,98442.47
2022-11-09T12:15:22.108Z,98438.16
2022-11-09T12:18:04.984Z,98436.63
2022-11-09T12:20:42.099Z,98437.09
2022-11-09T12:23:21.117Z,98431.28
2022-11-09T12:26:24.300Z,98442.63
2022-11-09T12:29:06.846Z,98451.31
2022-11-09T12:31:53.671Z,98439.13
2022-11-09T12:34:33.817Z,98435.31
2022-11-09T12:37:18.417Z,98444.78
2022-11-09T12:39:53.345Z,98438.13
2022-11-09T12:42:48.181Z,98438.13
2022-11-09T12:45:22.696Z,98437.50
2022-11-09T12:47:49.511Z,98446.50
2022-11-09T12:50:19.344Z,98440.31
2022-11-09T12:52:48.707Z,98439.78
2022-11-09T12:55:16.596Z,98438.28
2022-11-09T12:57:46.897Z,98437.47
2022-11-09T13:00:33.796Z,98436.97
2022-11-09T13:03:06.896Z,98439.44
2022-11-09T13:05:37.650Z,98445.47
2022-11-09T13:08:15.591Z,98440.09
2022-11-09T13:10:42.742Z,98435.97
2022-11-09T13:13:12.229Z,98445.78
2022-11-09T13:15:39.965Z,98446.44
2022-11-09T13:18:06.638Z,98437.13
2022-11-09T13:23:54.589Z,98449.81
2022-11-09T13:26:32.991Z,98448.13
2022-11-09T13:29:14.855Z,98452.44
2022-11-09T13:32:00.311Z,98444.78
2022-11-09T13:34:44.543Z,98449.97
2022-11-09T13:37:35.968Z,98448.13
2022-11-09T13:40:33.531Z,98449.63
2022-11-09T13:43:04.396Z,98453.81
2022-11-09T13:45:48.821Z,98450.47
2022-11-09T13:48:33.321Z,98457.47
2022-11-09T13:51:04.812Z,98460.13
2022-11-09T13:53:37.250Z,98463.28
2022-11-09T13:56:27.934Z,98472.19
2022-11-09T13:58:57.901Z,98467.97
2022-11-09T14:01:38.570Z,98467.47
2022-11-09T14:04:05.660Z,98464.78
2022-11-09T14:06:33.701Z,98471.13
2022-11-09T14:09:01.434Z,98476.66
2022-11-09T14:11:34.169Z,98471.50
2022-11-09T14:14:30.088Z,98476.66
2022-11-09T14:17:09.136Z,98475.47
2022-11-09T14:19:54.091Z,98484.47
2022-11-09T14:22:20.839Z,98475.47
2022-11-09T14:24:47.568Z,98480.13
2022-11-09T14:27:23.724Z,98489.44
2022-11-09T14:29:56.300Z,98481.13
2022-11-09T14:32:22.881Z,98480.13
2022-11-09T14:34:49.708Z,98477.09
2022-11-09T14:37:16.919Z,98483.56
2022-11-09T14:39:49.450Z,98480.06
2022-11-09T14:42:23.283Z,98496.72
2022-11-09T14:44:50.251Z,98495.69
2022-11-09T14:47:16.831Z,98490.69
2022-11-09T14:49:45.283Z,98499.00
2022-11-09T14:52:17.611Z,98502.00
2022-11-09T14:54:46.301Z,98502.78
2022-11-09T14:57:15.641Z,98500.28
2022-11-09T14:59:45.094Z,98502.63
2022-11-09T15:02:22.119Z,98499.94
2022-11-09T15:05:03.814Z,98508.06
2022-11-09T15:07:34.583Z,98508.72
2022-11-09T15:10:05.800Z,98510.72
2022-11-09T15:12:33.652Z,98507.47
2022-11-09T15:15:05.071Z,98516.16
2022-11-09T15:17:34.688Z,98511.97
2022-11-09T15:20:02.608Z,98521.28
2022-11-09T15:22:44.014Z,98521.22
2022-11-09T15:25:22.799Z,98515.19
2022-11-09T15:28:09.531Z,98515.50
2022-11-09T15:30:54.445Z,98521.31
2022-11-09T15:33:35.420Z,98524.25
2022-11-09T15:36:07.035Z,98523.75
2022-11-09T15:38:38.654Z,98527.56
2022-11-09T15:41:18.161Z,98521.94
2022-11-09T15:43:44.965Z,98521.88
2022-11-09T15:46:17.649Z,98516.88
2022-11-09T15:48:46.304Z,98528.19
2022-11-09T15:51:14.576Z,98532.28
2022-11-09T15:53:41.430Z,98534.44
2022-11-09T15:56:20.449Z,98543.03
2022-11-09T15:58:49.216Z,98535.34
2022-11-09T16:01:16.203Z,98549.22
2022-11-09T16:03:42.879Z,98542.91
2022-11-09T16:06:11.308Z,98549.03
2022-11-09T16:08:38.122Z,98551.03
2022-11-09T16:11:06.237Z,98550.03
2022-11-09T16:13:32.832Z,98547.00
2022-11-09T16:16:05.261Z,98561.31
2022-11-09T16:18:32.660Z,98561.31
2022-11-09T16:21:08.468Z,98563.28
2022-11-09T16:23:35.702Z,98571.41
2022-11-09T16:26:11.751Z,98560.91
2022-11-09T16:28:40.217Z,98564.41
2022-11-09T16:31:08.072Z,98570.56
2022-11-09T16:33:34.714Z,98570.75
2022-11-09T16:36:05.354Z,98555.91
2022-11-09T16:38:39.396Z,98569.50
2022-11-09T16:41:06.335Z,98571.19
2022-11-09T16:43:36.391Z,98579.31
2022-11-09T16:46:03.170Z,98576.50
2022-11-09T16:48:32.949Z,98572.84
2022-11-09T16:50:59.940Z,98582.66
2022-11-09T16:53:27.315Z,98591.09
2022-11-09T16:55:54.612Z,98597.72
2022-11-09T16:58:21.510Z,98588.72
2022-11-09T17:03:37.234Z,98600.38
2022-11-09T17:06:04.327Z,98602.34
2022-11-09T17:08:30.943Z,98605.00
2022-11-09T17:10:57.843Z,98605.72
2022-11-09T17:13:24.431Z,98610.34
2022-11-09T17:15:54.804Z,98615.50
2022-11-09T17:18:21.681Z,98617.47
2022-11-09T17:20:50.762Z,98618.59
2022-11-09T17:23:18.925Z,98613.28
2022-11-09T17:26:03.034Z,98618.06
2022-11-09T17:28:29.805Z,98623.41
2022-11-09T17:30:56.399Z,98629.84
2022-11-09T17:33:24.829Z,98627.59
2022-11-09T17:36:06.736Z,98626.34
2022-11-09T17:38:33.583Z,98630.00
2022-11-09T17:41:03.368Z,98632.81
2022-11-09T17:43:34.720Z,98643.59
2022-11-09T17:46:12.735Z,98641.06
2022-11-09T17:48:41.434Z,98651.72
2022-11-09T17:51:09.632Z,98652.03
2022-11-09T17:53:36.570Z,98656.66
2022-11-09T17:56:03.795Z,98664.47
2022-11-09T17:58:31.568Z,98661.25
2022-11-09T18:01:09.583Z,98667.00
2022-11-09T18:03:38.083Z,98674.41
2022-11-09T18:06:10.668Z,98674.41
2022-11-09T18:08:37.722Z,98673.59
2022-11-09T18:11:04.639Z,98684.53
2022-11-09T18:13:31.294Z,98680.06
2022-11-09T18:15:58.232Z,98683.69
2022-11-09T18:18:25.441Z,98691.41
2022-11-09T18:20:52.042Z,98689.59
2022-11-09T18:23:18.717Z,98684.56
2022-11-09T18:25:55.929Z,98693.25
2022-11-09T18:28:22.888Z,98692.41
2022-11-09T18:30:49.647Z,98700.38
2022-11-09T18:33:16.321Z,98699.00
2022-11-09T18:35:42.963Z,98701.66
2022-11-09T18:38:13.107Z,98695.38
2022-11-09T18:40:40.057Z,98699.66
2022-11-09T18:43:06.902Z,98701.66
2022-11-09T18:45:34.893Z,98694.94
2022-11-09T18:48:01.586Z,98702.06
2022-11-09T18:50:28.458Z,98697.22
2022-11-09T18:52:55.127Z,98694.69
2022-11-09T18:55:21.788Z,98700.84
2022-11-09T18:57:48.468Z,98703.81
2022-11-09T19:00:15.544Z,98703.09
2022-11-09T19:02:42.282Z,98714.59
2022-11-09T19:05:09.404Z,98710.09
2022-11-09T19:07:36.111Z,98708.44
2022-11-09T19:10:03.174Z,98715.88
2022-11-09T19:12:30.292Z,98714.03
2022-11-09T19:14:56.960Z,98718.53
2022-11-09T19:17:24.008Z,98722.69
2022-11-09T19:19:50.644Z,98731.94
2022-11-09T19:22:19.138Z,98735.59
2022-11-09T19:24:46.507Z,98730.56
2022-11-09T19:27:13.419Z,98738.38
2022-11-09T19:29:40.211Z,98737.53
2022-11-09T19:32:06.913Z,98738.25
2022-11-09T19:34:33.540Z,98749.00
2022-11-09T19:37:00.326Z,98750.41
2022-11-09T19:39:32.535Z,98754.50
2022-11-09T19:42:00.398Z,98761.06
2022-11-09T19:44:27.052Z,98761.06
2022-11-09T19:46:53.819Z,98752.41
2022-11-09T19:49:20.644Z,98753.53
2022-11-09T19:51:47.277Z,98768.63
2022-11-09T19:54:14.486Z,98763.59
